createdAt,value
2023-01-09T00:03:07.152Z,6.63
2023-01-09T00:08:09.558Z,6.61
2023-01-09T00:13:12.046Z,6.58
2023-01-09T00:18:13.386Z,6.50
2023-01-09T00:23:14.688Z,6.50
2023-01-09T00:28:16.031Z,6.39
2023-01-09T00:33:17.392Z,6.34
2023-01-09T00:38:18.794Z,6.31
2023-01-09T00:43:20.594Z,6.26
2023-01-09T00:48:26.897Z,6.22
2023-01-09T00:53:31.289Z,6.15
2023-01-09T00:58:33.427Z,6.09
2023-01-09T01:03:34.739Z,6.02
2023-01-09T01:08:36.051Z,6.05
2023-01-09T01:13:38.436Z,6.03
2023-01-09T01:18:40.606Z,6.02
2023-01-09T01:23:42.054Z,5.96
2023-01-09T01:28:43.409Z,5.96
2023-01-09T01:33:44.783Z,5.92
2023-01-09T01:38:46.916Z,5.97
2023-01-09T01:44:14.713Z,5.98
2023-01-09T01:49:20.207Z,5.93
2023-01-09T01:54:24.931Z,5.88
2023-01-09T01:59:28.507Z,5.83
2023-01-09T02:04:32.091Z,5.72
2023-01-09T02:09:33.912Z,5.67
2023-01-09T02:14:35.305Z,5.58
2023-01-09T02:19:57.845Z,5.59
2023-01-09T02:25:01.964Z,5.59
2023-01-09T02:30:21.547Z,5.52
2023-01-09T02:35:29.001Z,5.39
2023-01-09T02:40:33.422Z,5.24
2023-01-09T02:45:34.784Z,5.08
2023-01-09T02:50:42.276Z,4.88
2023-01-09T02:55:58.585Z,4.74
2023-01-09T03:01:11.949Z,4.58
2023-01-09T03:06:42.142Z,4.48
2023-01-09T03:11:47.183Z,4.45
2023-01-09T03:16:52.905Z,4.50
2023-01-09T03:21:55.015Z,4.43
2023-01-09T03:26:56.333Z,4.44
2023-01-09T03:31:57.826Z,4.46
2023-01-09T03:36:59.247Z,4.46
2023-01-09T03:42:00.573Z,4.48
2023-01-09T03:47:02.063Z,4.44
2023-01-09T03:52:03.789Z,4.30
2023-01-09T03:57:05.332Z,4.21
2023-01-09T04:02:07.238Z,4.18
2023-01-09T04:07:08.623Z,4.03
2023-01-09T04:12:09.947Z,3.87
2023-01-09T04:17:11.402Z,3.81
2023-01-09T04:22:12.710Z,3.62
2023-01-09T04:27:14.339Z,3.55
2023-01-09T04:32:16.001Z,3.72
2023-01-09T04:37:17.326Z,3.45
2023-01-09T04:42:18.945Z,3.52
2023-01-09T04:47:20.713Z,3.34
2023-01-09T04:52:22.017Z,3.25
2023-01-09T04:57:23.432Z,3.12
2023-01-09T05:02:24.731Z,3.16
2023-01-09T05:07:26.068Z,3.18
2023-01-09T05:12:27.436Z,3.18
2023-01-09T05:17:29.062Z,3.19
2023-01-09T05:22:30.411Z,3.14
2023-01-09T05:27:31.779Z,3.06
2023-01-09T05:32:33.107Z,3.16
2023-01-09T05:37:34.433Z,3.59
2023-01-09T05:42:35.760Z,3.81
2023-01-09T05:47:37.135Z,4.02
2023-01-09T05:52:38.504Z,4.64
2023-01-09T05:57:39.923Z,4.51
2023-01-09T06:02:41.360Z,4.40
2023-01-09T06:07:42.800Z,4.74
2023-01-09T06:12:47.043Z,4.96
2023-01-09T06:17:48.436Z,5.01
2023-01-09T06:22:52.035Z,5.15
2023-01-09T06:27:53.449Z,5.32
2023-01-09T06:32:54.799Z,5.55
2023-01-09T06:37:56.988Z,5.54
2023-01-09T06:42:58.304Z,5.67
2023-01-09T06:47:59.649Z,5.93
2023-01-09T06:53:01.053Z,6.03
2023-01-09T06:58:02.368Z,5.88
2023-01-09T07:03:04.052Z,5.71
2023-01-09T07:08:05.374Z,5.72
2023-01-09T07:13:06.811Z,5.76
2023-01-09T07:18:08.162Z,5.66
2023-01-09T07:23:13.030Z,5.60
2023-01-09T07:28:14.366Z,5.44
2023-01-09T07:33:15.823Z,5.42
2023-01-09T07:38:17.157Z,5.44
2023-01-09T07:43:18.550Z,5.53
2023-01-09T07:48:19.860Z,5.50
2023-01-09T07:53:21.253Z,5.51
2023-01-09T07:58:22.651Z,5.51
2023-01-09T08:03:24.043Z,5.53
2023-01-09T08:08:25.519Z,5.43
2023-01-09T08:13:26.842Z,5.30
2023-01-09T08:18:28.164Z,5.44
2023-01-09T08:23:29.524Z,5.77
2023-01-09T08:28:30.841Z,6.18
2023-01-09T08:33:32.687Z,6.55
2023-01-09T08:38:34.019Z,6.82
2023-01-09T08:44:10.584Z,7.07
2023-01-09T08:49:11.915Z,7.28
2023-01-09T08:54:13.254Z,7.85
2023-01-09T08:59:15.593Z,8.17
2023-01-09T09:04:16.979Z,8.07
2023-01-09T09:09:19.415Z,8.02
2023-01-09T09:14:39.700Z,8.01
2023-01-09T09:19:42.655Z,7.66
2023-01-09T09:24:43.952Z,7.63
2023-01-09T09:29:45.317Z,7.80
2023-01-09T09:34:46.632Z,8.15
2023-01-09T09:39:47.984Z,8.47
2023-01-09T09:45:02.878Z,8.72
2023-01-09T09:50:26.284Z,8.99
2023-01-09T09:55:30.859Z,9.91
2023-01-09T10:00:32.387Z,10.80
2023-01-09T10:05:45.512Z,10.32
2023-01-09T10:10:52.245Z,9.65
2023-01-09T10:16:01.567Z,8.59
2023-01-09T10:21:12.287Z,8.43
2023-01-09T10:26:16.429Z,8.37
2023-01-09T10:31:29.020Z,8.42
2023-01-09T10:36:33.257Z,9.06
2023-01-09T10:41:38.482Z,9.26
2023-01-09T10:46:48.716Z,9.84
2023-01-09T10:51:51.674Z,10.06
2023-01-09T10:56:59.147Z,12.28
2023-01-09T11:02:01.202Z,12.10
2023-01-09T11:07:07.849Z,11.53
2023-01-09T11:12:23.973Z,10.44
2023-01-09T11:17:26.881Z,9.83
2023-01-09T11:22:28.559Z,10.09
2023-01-09T11:27:29.953Z,10.68
2023-01-09T11:32:32.022Z,10.57
2023-01-09T11:37:33.923Z,10.02
2023-01-09T11:42:53.590Z,9.74
2023-01-09T11:47:54.911Z,9.62
2023-01-09T11:53:05.527Z,9.81
2023-01-09T11:58:12.250Z,9.84
2023-01-09T12:03:13.557Z,9.79
2023-01-09T12:08:21.841Z,9.72
2023-01-09T12:13:43.667Z,9.82
2023-01-09T12:18:59.449Z,9.78
2023-01-09T12:24:04.122Z,9.91
2023-01-09T12:29:11.615Z,9.64
2023-01-09T12:34:36.239Z,9.41
2023-01-09T12:39:44.164Z,9.13
2023-01-09T12:44:51.327Z,8.92
2023-01-09T12:49:59.636Z,8.82
2023-01-09T12:55:19.252Z,8.87
2023-01-09T13:00:20.848Z,8.69
2023-01-09T13:05:25.237Z,8.67
2023-01-09T13:10:30.662Z,8.56
2023-01-09T13:15:35.761Z,8.44
2023-01-09T13:20:50.884Z,8.38
2023-01-09T13:25:54.365Z,8.28
2023-01-09T13:31:08.715Z,8.24
2023-01-09T13:36:19.647Z,8.17
2023-01-09T13:41:59.539Z,8.36
2023-01-09T13:47:02.309Z,8.32
2023-01-09T13:52:05.042Z,8.29
2023-01-09T13:57:18.454Z,8.21
2023-01-09T14:02:35.149Z,8.23
2023-01-09T14:07:37.452Z,8.20
2023-01-09T14:12:40.676Z,8.12
2023-01-09T14:17:42.321Z,8.17
2023-01-09T14:22:55.843Z,8.65
2023-01-09T14:27:57.948Z,8.71
2023-01-09T14:33:05.130Z,8.43
2023-01-09T14:38:13.928Z,8.44
2023-01-09T14:43:21.308Z,8.28
2023-01-09T14:48:24.395Z,7.93
2023-01-09T14:53:28.628Z,7.89
2023-01-09T14:58:31.122Z,7.82
2023-01-09T15:03:34.674Z,7.71
2023-01-09T15:08:36.388Z,7.65
2023-01-09T15:13:42.133Z,7.61
2023-01-09T15:18:43.555Z,7.55
2023-01-09T15:23:44.851Z,7.52
2023-01-09T15:28:46.164Z,7.50
2023-01-09T15:33:48.250Z,7.38
2023-01-09T15:38:50.366Z,7.44
2023-01-09T15:43:51.737Z,7.36
2023-01-09T15:48:53.903Z,7.25
2023-01-09T15:53:57.606Z,7.26
2023-01-09T15:58:59.483Z,7.19
2023-01-09T16:04:04.666Z,7.17
2023-01-09T16:09:14.854Z,7.16
2023-01-09T16:14:16.143Z,7.04
2023-01-09T16:19:46.431Z,6.98
2023-01-09T16:24:53.584Z,6.87
2023-01-09T16:29:57.995Z,6.81
2023-01-09T16:35:06.093Z,6.64
2023-01-09T16:40:24.022Z,6.53
2023-01-09T16:45:26.473Z,6.45
2023-01-09T16:50:28.075Z,6.50
2023-01-09T16:55:29.416Z,6.39
2023-01-09T17:00:32.018Z,6.40
2023-01-09T17:05:33.345Z,6.47
2023-01-09T17:10:34.821Z,6.40
2023-01-09T17:15:36.140Z,6.49
2023-01-09T17:20:37.479Z,6.45
2023-01-09T17:25:58.045Z,6.38
2023-01-09T17:31:05.738Z,6.27
2023-01-09T17:36:26.177Z,6.29
2023-01-09T17:41:28.853Z,6.05
2023-01-09T17:46:34.987Z,6.03
2023-01-09T17:51:36.340Z,6.04
2023-01-09T17:56:38.569Z,6.09
2023-01-09T18:01:40.177Z,6.07
2023-01-09T18:06:41.744Z,6.07
2023-01-09T18:11:44.042Z,6.18
2023-01-09T18:16:45.601Z,6.19
2023-01-09T18:21:46.972Z,6.18
2023-01-09T18:26:48.268Z,6.12
2023-01-09T18:31:51.223Z,6.05
2023-01-09T18:36:52.608Z,6.08
2023-01-09T18:41:54.039Z,6.04
2023-01-09T18:46:55.427Z,6.00
2023-01-09T18:51:56.817Z,6.05
2023-01-09T18:56:58.117Z,6.01
2023-01-09T19:02:01.954Z,5.86
2023-01-09T19:07:03.450Z,5.82
2023-01-09T19:12:04.854Z,5.87
2023-01-09T19:17:06.493Z,5.87
2023-01-09T19:22:07.803Z,5.84
2023-01-09T19:27:09.148Z,5.84
2023-01-09T19:32:10.643Z,5.84
2023-01-09T19:37:12.037Z,5.72
2023-01-09T19:42:13.688Z,5.74
2023-01-09T19:47:15.136Z,5.74
2023-01-09T19:52:16.463Z,5.80
2023-01-09T19:57:17.791Z,5.85
2023-01-09T20:07:25.498Z,5.78
2023-01-09T20:12:26.847Z,5.75
2023-01-09T20:17:28.497Z,5.67
2023-01-09T20:22:29.802Z,5.76
2023-01-09T20:27:31.123Z,5.73
2023-01-09T20:32:32.579Z,5.73
2023-01-09T20:37:33.906Z,5.64
2023-01-09T20:42:35.273Z,5.57
2023-01-09T20:47:36.584Z,5.54
2023-01-09T20:52:37.912Z,5.49
2023-01-09T20:57:39.491Z,5.37
2023-01-09T21:02:40.992Z,5.36
2023-01-09T21:07:42.298Z,5.26
2023-01-09T21:12:43.631Z,5.19
2023-01-09T21:17:45.002Z,4.99
2023-01-09T21:22:46.461Z,4.82
2023-01-09T21:27:50.234Z,4.74
2023-01-09T21:32:51.636Z,4.65
2023-01-09T21:37:52.964Z,4.62
2023-01-09T21:43:13.064Z,4.80
2023-01-09T21:48:14.391Z,4.91
2023-01-09T21:53:15.737Z,4.98
2023-01-09T21:58:17.044Z,5.04
2023-01-09T22:03:18.953Z,5.04
2023-01-09T22:08:20.254Z,4.96
2023-01-09T22:13:21.729Z,4.98
2023-01-09T22:18:23.051Z,4.94
2023-01-09T22:23:24.572Z,4.96
2023-01-09T22:28:25.872Z,4.88
2023-01-09T22:33:27.187Z,4.76
2023-01-09T22:38:28.512Z,4.70
2023-01-09T22:43:30.606Z,4.65
2023-01-09T22:48:32.857Z,4.55
2023-01-09T22:53:34.351Z,4.49
2023-01-09T22:58:35.813Z,4.52
2023-01-09T23:03:37.113Z,4.59
2023-01-09T23:08:38.924Z,4.57
2023-01-09T23:13:40.537Z,4.47
2023-01-09T23:18:41.853Z,4.36
2023-01-09T23:23:43.147Z,4.32
2023-01-09T23:28:44.438Z,4.36
2023-01-09T23:33:45.743Z,4.43
2023-01-09T23:38:47.081Z,4.45
2023-01-09T23:43:48.413Z,4.47
2023-01-09T23:48:49.797Z,4.63
2023-01-09T23:53:51.200Z,4.60
2023-01-09T23:58:52.560Z,4.59
